createdAt,value
2023-02-09T00:02:57.046Z,103197.75
2023-02-09T00:05:59.993Z,103198.44
2023-02-09T00:09:03.460Z,103188.31
2023-02-09T00:12:25.594Z,103187.88
2023-02-09T00:15:28.197Z,103187.88
2023-02-09T00:18:31.576Z,103186.22
2023-02-09T00:21:34.196Z,103186.22
2023-02-09T00:24:37.439Z,103180.56
2023-02-09T00:27:41.401Z,103186.66
2023-02-09T00:30:44.318Z,103189.47
2023-02-09T00:33:47.095Z,103191.13
2023-02-09T00:36:49.693Z,103192.78
2023-02-09T00:39:52.297Z,103184.00
2023-02-09T00:42:56.285Z,103180.34
2023-02-09T00:45:58.937Z,103181.53
2023-02-09T00:49:01.612Z,103175.88
2023-02-09T00:52:04.183Z,103172.56
2023-02-09T00:55:07.335Z,103168.59
2023-02-09T00:58:11.267Z,103170.13
2023-02-09T01:01:14.271Z,103176.59
2023-02-09T01:04:16.976Z,103171.41
2023-02-09T01:07:19.607Z,103169.06
2023-02-09T01:10:22.136Z,103171.06
2023-02-09T01:13:26.017Z,103176.38
2023-02-09T01:16:30.345Z,103165.44
2023-02-09T01:19:33.071Z,103159.69
2023-02-09T01:22:37.241Z,103166.94
2023-02-09T01:25:39.862Z,103165.31
2023-02-09T01:28:43.966Z,103167.31
2023-02-09T01:31:47.020Z,103172.94
2023-02-09T01:34:51.571Z,103175.41
2023-02-09T01:37:54.117Z,103166.94
2023-02-09T01:40:56.664Z,103162.50
2023-02-09T01:44:01.860Z,103142.78
2023-02-09T01:47:04.891Z,103146.75
2023-02-09T01:50:07.818Z,103152.41
2023-02-09T01:53:10.369Z,103159.69
2023-02-09T01:56:16.119Z,103162.00
2023-02-09T01:59:20.062Z,103160.84
2023-02-09T02:02:22.656Z,103150.75
2023-02-09T02:05:25.208Z,103150.03
2023-02-09T02:08:29.204Z,103147.34
2023-02-09T02:11:32.840Z,103147.00
2023-02-09T02:14:37.630Z,103144.19
2023-02-09T02:17:47.217Z,103137.38
2023-02-09T02:21:31.273Z,103126.13
2023-02-09T02:24:51.731Z,103125.63
2023-02-09T02:27:59.627Z,103118.81
2023-02-09T02:31:41.908Z,103109.88
2023-02-09T02:34:47.137Z,103105.91
2023-02-09T02:37:54.468Z,103099.09
2023-02-09T02:40:58.375Z,103103.22
2023-02-09T02:44:03.643Z,103094.63
2023-02-09T02:47:08.402Z,103103.91
2023-02-09T02:50:12.762Z,103095.44
2023-02-09T02:53:15.299Z,103093.47
2023-02-09T02:56:19.815Z,103094.63
2023-02-09T02:59:23.657Z,103091.81
2023-02-09T03:02:28.963Z,103092.28
2023-02-09T03:05:31.662Z,103077.03
2023-02-09T03:08:47.206Z,103069.75
2023-02-09T03:11:51.213Z,103070.44
2023-02-09T03:15:04.602Z,103068.78
2023-02-09T03:18:13.015Z,103064.78
2023-02-09T03:21:16.364Z,103072.09
2023-02-09T03:24:22.980Z,103059.97
2023-02-09T03:27:26.196Z,103061.63
2023-02-09T03:30:28.767Z,103054.69
2023-02-09T03:33:33.276Z,103052.69
2023-02-09T03:36:36.932Z,103046.41
2023-02-09T03:39:39.513Z,103054.47
2023-02-09T03:42:42.061Z,103048.03
2023-02-09T03:45:44.626Z,103033.59
2023-02-09T03:48:49.931Z,103037.56
2023-02-09T03:51:52.535Z,103039.22
2023-02-09T03:54:55.132Z,103044.84
2023-02-09T03:57:57.721Z,103042.38
2023-02-09T04:01:04.660Z,103046.03
2023-02-09T04:04:08.657Z,103043.22
2023-02-09T04:07:12.104Z,103046.03
2023-02-09T04:10:14.741Z,103035.91
2023-02-09T04:13:17.314Z,103043.22
2023-02-09T04:16:19.964Z,103035.22
2023-02-09T04:19:23.925Z,103037.72
2023-02-09T04:22:26.519Z,103034.50
2023-02-09T04:25:29.101Z,103033.34
2023-02-09T04:28:31.746Z,103034.50
2023-02-09T04:31:34.821Z,103038.97
2023-02-09T04:34:38.830Z,103019.16
2023-02-09T04:37:41.388Z,103042.63
2023-02-09T04:40:44.163Z,103049.09
2023-02-09T04:43:47.041Z,103057.88
2023-02-09T04:46:49.646Z,103064.34
2023-02-09T04:49:53.546Z,103063.41
2023-02-09T04:52:56.134Z,103068.34
2023-02-09T04:55:58.715Z,103066.72
2023-02-09T04:59:18.727Z,103062.25
2023-02-09T05:02:21.304Z,103050.50
2023-02-09T05:05:25.230Z,103060.59
2023-02-09T05:08:27.812Z,103067.88
2023-02-09T05:11:30.416Z,103083.63
2023-02-09T05:14:33.000Z,103094.91
2023-02-09T05:17:35.545Z,103089.28
2023-02-09T05:20:39.617Z,103083.63
2023-02-09T05:23:42.310Z,103086.06
2023-02-09T05:26:44.901Z,103089.38
2023-02-09T05:29:47.446Z,103096.66
2023-02-09T05:32:50.036Z,103090.22
2023-02-09T05:35:55.625Z,103093.50
2023-02-09T05:38:58.190Z,103093.50
2023-02-09T05:42:18.970Z,103083.84
2023-02-09T05:45:23.169Z,103077.41
2023-02-09T05:48:26.033Z,103073.28
2023-02-09T05:51:29.958Z,103073.41
2023-02-09T05:54:32.484Z,103095.13
2023-02-09T05:57:35.033Z,103104.78
2023-02-09T06:00:37.577Z,103110.44
2023-02-09T06:03:40.174Z,103116.06
2023-02-09T06:06:44.204Z,103099.16
2023-02-09T06:09:46.796Z,103097.50
2023-02-09T06:12:49.418Z,103099.16
2023-02-09T06:15:52.081Z,103113.69
2023-02-09T06:18:54.657Z,103107.22
2023-02-09T06:21:58.720Z,103108.88
2023-02-09T06:25:01.280Z,103104.91
2023-02-09T06:28:03.903Z,103107.72
2023-02-09T06:31:07.083Z,103110.44
2023-02-09T06:34:09.808Z,103115.34
2023-02-09T06:37:13.745Z,103114.88
2023-02-09T06:40:16.447Z,103128.63
2023-02-09T06:43:19.036Z,103131.44
2023-02-09T06:46:21.615Z,103107.22
2023-02-09T06:49:25.257Z,103102.41
2023-02-09T06:52:29.510Z,103123.31
2023-02-09T06:55:32.233Z,103120.97
2023-02-09T06:58:34.885Z,103119.34
2023-02-09T07:01:37.539Z,103109.72
2023-02-09T07:04:40.162Z,103122.16
2023-02-09T07:07:44.170Z,103106.88
2023-02-09T07:10:46.946Z,103107.22
2023-02-09T07:13:49.714Z,103113.25
2023-02-09T07:16:52.315Z,103127.34
2023-02-09T07:19:55.329Z,103127.34
2023-02-09T07:23:00.645Z,103113.59
2023-02-09T07:26:04.178Z,103120.03
2023-02-09T07:29:06.834Z,103142.59
2023-02-09T07:32:09.492Z,103130.50
2023-02-09T07:35:12.060Z,103129.69
2023-02-09T07:38:15.941Z,103124.03
2023-02-09T07:41:19.648Z,103140.94
2023-02-09T07:44:22.312Z,103138.47
2023-02-09T07:47:24.935Z,103132.00
2023-02-09T07:50:27.506Z,103131.56
2023-02-09T07:53:31.418Z,103125.53
2023-02-09T07:56:33.966Z,103139.28
2023-02-09T07:59:36.532Z,103140.00
2023-02-09T08:02:39.389Z,103140.13
2023-02-09T08:05:43.361Z,103134.09
2023-02-09T08:08:47.478Z,103127.09
2023-02-09T08:11:51.176Z,103150.31
2023-02-09T08:14:53.776Z,103152.44
2023-02-09T08:17:56.378Z,103144.66
2023-02-09T08:20:58.984Z,103140.59
2023-02-09T08:24:02.894Z,103134.19
2023-02-09T08:27:05.426Z,103129.00
2023-02-09T08:30:08.711Z,103128.69
2023-02-09T08:33:11.230Z,103139.63
2023-02-09T08:36:13.858Z,103138.19
2023-02-09T08:39:17.724Z,103131.13
2023-02-09T08:42:20.256Z,103152.66
2023-02-09T08:45:22.988Z,103134.78
2023-02-09T08:48:25.634Z,103142.41
2023-02-09T08:51:28.226Z,103144.41
2023-02-09T08:54:32.155Z,103156.84
2023-02-09T08:57:43.429Z,103145.09
2023-02-09T09:00:46.361Z,103151.38
2023-02-09T09:03:49.462Z,103141.47
2023-02-09T09:06:52.138Z,103139.66
2023-02-09T09:09:56.044Z,103142.31
2023-02-09T09:12:58.646Z,103134.69
2023-02-09T09:16:03.674Z,103131.88
2023-02-09T09:19:07.378Z,103152.72
2023-02-09T09:22:09.957Z,103143.81
2023-02-09T09:25:13.870Z,103149.44
2023-02-09T09:28:16.522Z,103158.56
2023-02-09T09:31:19.200Z,103163.69
2023-02-09T09:34:21.825Z,103163.88
2023-02-09T09:37:24.553Z,103152.16
2023-02-09T09:40:29.372Z,103169.81
2023-02-09T09:43:33.508Z,103165.72
2023-02-09T09:46:39.116Z,103165.72
2023-02-09T09:49:41.748Z,103166.38
2023-02-09T09:52:44.892Z,103163.09
2023-02-09T09:55:49.074Z,103157.47
2023-02-09T09:58:52.507Z,103164.75
2023-02-09T10:01:55.133Z,103166.25
2023-02-09T10:05:03.460Z,103176.47
2023-02-09T10:08:08.082Z,103160.28
2023-02-09T10:11:12.884Z,103178.94
2023-02-09T10:14:15.931Z,103165.72
2023-02-09T10:17:18.510Z,103174.16
2023-02-09T10:20:37.377Z,103174.47
2023-02-09T10:23:40.975Z,103181.91
2023-02-09T10:26:44.953Z,103188.34
2023-02-09T10:29:47.568Z,103190.84
2023-02-09T10:32:50.142Z,103192.50
2023-02-09T10:35:53.359Z,103190.84
2023-02-09T10:39:04.974Z,103191.34
2023-02-09T10:42:18.355Z,103188.34
2023-02-09T10:45:22.752Z,103188.53
2023-02-09T10:48:25.846Z,103197.41
2023-02-09T10:51:29.851Z,103206.34
2023-02-09T10:54:32.407Z,103206.34
2023-02-09T10:57:37.546Z,103215.28
2023-02-09T11:00:44.635Z,103206.34
2023-02-09T11:03:58.396Z,103208.97
2023-02-09T11:07:01.895Z,103203.34
2023-02-09T11:10:05.167Z,103220.22
2023-02-09T11:13:17.886Z,103208.97
2023-02-09T11:16:48.331Z,103216.25
2023-02-09T11:20:01.383Z,103214.59
2023-02-09T11:23:12.373Z,103215.28
2023-02-09T11:26:18.453Z,103212.94
2023-02-09T11:29:25.440Z,103204.03
2023-02-09T11:32:30.182Z,103205.69
2023-02-09T11:35:39.770Z,103204.03
2023-02-09T11:38:45.398Z,103200.06
2023-02-09T11:42:08.300Z,103201.69
2023-02-09T11:45:13.126Z,103200.34
2023-02-09T11:48:20.892Z,103202.31
2023-02-09T11:51:25.679Z,103199.59
2023-02-09T11:54:30.628Z,103197.56
2023-02-09T11:57:35.636Z,103203.13
2023-02-09T12:00:53.461Z,103203.00
2023-02-09T12:04:06.120Z,103203.25
2023-02-09T12:07:12.613Z,103205.53
2023-02-09T12:10:18.982Z,103204.84
2023-02-09T12:13:27.796Z,103194.56
2023-02-09T12:16:32.591Z,103187.75
2023-02-09T12:19:36.318Z,103183.09
2023-02-09T12:22:51.608Z,103184.06
2023-02-09T12:25:55.511Z,103186.53
2023-02-09T12:29:03.395Z,103191.63
2023-02-09T12:32:42.300Z,103193.25
2023-02-09T12:35:44.982Z,103180.38
2023-02-09T12:39:08.100Z,103174.03
2023-02-09T12:42:29.536Z,103179.00
2023-02-09T12:45:34.311Z,103174.16
2023-02-09T12:48:45.956Z,103175.47
2023-02-09T12:51:53.930Z,103177.13
2023-02-09T12:54:56.652Z,103184.75
2023-02-09T12:57:59.346Z,103185.56
2023-02-09T13:01:02.020Z,103179.94
2023-02-09T13:04:07.682Z,103186.41
2023-02-09T13:07:16.097Z,103184.88
2023-02-09T13:10:24.445Z,103180.88
2023-02-09T13:14:37.745Z,103172.06
2023-02-09T13:17:40.945Z,103165.06
2023-02-09T13:21:12.405Z,103168.31
2023-02-09T13:24:15.709Z,103163.41
2023-02-09T13:27:19.175Z,103165.06
2023-02-09T13:30:30.515Z,103169.25
2023-02-09T13:33:37.281Z,103170.19
2023-02-09T13:36:41.922Z,103178.66
2023-02-09T13:39:44.913Z,103178.66
2023-02-09T13:42:55.781Z,103184.28
2023-02-09T13:46:00.476Z,103187.13
2023-02-09T13:49:12.772Z,103195.56
2023-02-09T13:52:16.996Z,103183.47
2023-02-09T13:55:20.635Z,103173.72
2023-02-09T13:58:24.512Z,103166.56
2023-02-09T14:01:29.970Z,103172.53
2023-02-09T14:04:33.964Z,103186.63
2023-02-09T14:07:37.196Z,103193.47
2023-02-09T14:10:39.807Z,103196.28
2023-02-09T14:13:43.540Z,103194.63
2023-02-09T14:16:53.753Z,103191.31
2023-02-09T14:19:57.360Z,103198.13
2023-02-09T14:23:00.871Z,103200.44
2023-02-09T14:26:04.177Z,103197.63
2023-02-09T14:29:12.272Z,103203.25
2023-02-09T14:32:33.328Z,103200.81
2023-02-09T14:35:37.266Z,103195.25
2023-02-09T14:38:42.491Z,103208.91
2023-02-09T14:41:56.507Z,103215.34
2023-02-09T14:45:00.444Z,103227.47
2023-02-09T14:48:04.533Z,103227.47
2023-02-09T14:51:12.245Z,103222.97
2023-02-09T14:54:19.750Z,103224.19
2023-02-09T14:57:23.284Z,103228.16
2023-02-09T15:00:28.138Z,103226.84
2023-02-09T15:03:32.132Z,103240.94
2023-02-09T15:06:35.455Z,103245.75
2023-02-09T15:09:38.029Z,103243.28
2023-02-09T15:12:40.604Z,103239.66
2023-02-09T15:15:43.651Z,103246.91
2023-02-09T15:18:47.640Z,103246.44
2023-02-09T15:22:05.310Z,103243.63
2023-02-09T15:25:09.593Z,103243.63
2023-02-09T15:28:15.482Z,103254.41
2023-02-09T15:31:18.198Z,103243.69
2023-02-09T15:34:22.180Z,103253.72
2023-02-09T15:37:26.350Z,103255.22
2023-02-09T15:40:48.221Z,103268.97
2023-02-09T15:44:08.728Z,103255.22
2023-02-09T15:47:29.024Z,103263.34
2023-02-09T15:50:34.279Z,103255.22
2023-02-09T15:53:37.349Z,103261.69
2023-02-09T15:56:40.015Z,103271.09
2023-02-09T15:59:42.690Z,103264.03
2023-02-09T16:02:45.261Z,103271.59
2023-02-09T16:05:50.263Z,103271.81
2023-02-09T16:08:53.855Z,103276.06
2023-02-09T16:11:56.508Z,103278.06
2023-02-09T16:14:59.129Z,103281.69
2023-02-09T16:18:01.674Z,103284.50
2023-02-09T16:21:07.136Z,103289.31
2023-02-09T16:24:15.665Z,103305.41
2023-02-09T16:27:21.679Z,103296.66
2023-02-09T16:30:25.403Z,103311.69
2023-02-09T16:33:28.160Z,103324.63
2023-02-09T16:36:32.087Z,103321.34
2023-02-09T16:39:34.663Z,103334.25
2023-02-09T16:42:37.220Z,103333.44
2023-02-09T16:45:43.153Z,103331.78
2023-02-09T16:48:49.097Z,103341.53
2023-02-09T16:51:53.031Z,103347.16
2023-02-09T16:54:58.432Z,103341.53
2023-02-09T16:58:01.827Z,103348.81
2023-02-09T17:01:04.714Z,103350.47
2023-02-09T17:04:09.391Z,103356.13
2023-02-09T17:07:13.344Z,103358.94
2023-02-09T17:10:17.136Z,103352.81
2023-02-09T17:13:20.538Z,103349.22
2023-02-09T17:16:24.550Z,103371.34
2023-02-09T17:19:33.093Z,103377.00
2023-02-09T17:22:43.183Z,103376.16
2023-02-09T17:25:46.678Z,103376.03
2023-02-09T17:28:49.449Z,103376.88
2023-02-09T17:31:53.808Z,103380.00
2023-02-09T17:34:56.577Z,103404.22
2023-02-09T17:38:00.785Z,103403.38
2023-02-09T17:41:04.936Z,103409.84
2023-02-09T17:44:24.285Z,103409.84
2023-02-09T17:47:34.320Z,103407.69
2023-02-09T17:50:37.729Z,103413.81
2023-02-09T17:53:41.698Z,103404.53
2023-02-09T17:56:44.341Z,103406.53
2023-02-09T17:59:47.742Z,103413.00
2023-02-09T18:02:50.310Z,103390.84
2023-02-09T18:05:54.268Z,103417.81
2023-02-09T18:08:58.152Z,103430.72
2023-02-09T18:12:01.888Z,103440.34
2023-02-09T18:15:06.527Z,103431.88
2023-02-09T18:18:09.081Z,103438.69
2023-02-09T18:21:14.464Z,103431.88
2023-02-09T18:24:18.479Z,103437.84
2023-02-09T18:27:21.580Z,103442.66
2023-02-09T18:30:26.049Z,103443.50
2023-02-09T18:37:05.954Z,103475.66
2023-02-09T18:40:08.748Z,103483.00
2023-02-09T18:43:12.016Z,103483.66
2023-02-09T18:46:14.873Z,103489.69
2023-02-09T18:49:17.531Z,103496.38
2023-02-09T18:52:24.993Z,103498.75
2023-02-09T18:55:29.264Z,103500.69
2023-02-09T18:58:31.797Z,103504.94
2023-02-09T19:01:34.798Z,103501.28
2023-02-09T19:04:37.407Z,103509.75
2023-02-09T19:07:41.994Z,103515.28
2023-02-09T19:10:44.650Z,103514.34
2023-02-09T19:14:07.430Z,103514.56
2023-02-09T19:17:12.257Z,103519.25
2023-02-09T19:20:18.040Z,103523.06
2023-02-09T19:23:22.028Z,103523.97
2023-02-09T19:26:24.564Z,103518.41
2023-02-09T19:29:28.628Z,103525.38
2023-02-09T19:32:31.201Z,103526.31
2023-02-09T19:35:33.810Z,103533.63
2023-02-09T19:38:37.719Z,103535.75
2023-02-09T19:41:40.417Z,103530.09
2023-02-09T19:44:43.015Z,103532.91
2023-02-09T19:47:45.544Z,103530.53
2023-02-09T19:50:54.463Z,103540.69
2023-02-09T19:53:58.401Z,103546.34
2023-02-09T19:57:03.494Z,103546.34
2023-02-09T20:00:06.585Z,103536.66
2023-02-09T20:03:09.237Z,103549.66
2023-02-09T20:06:12.902Z,103542.34
2023-02-09T20:09:17.048Z,103548.00
2023-02-09T20:12:21.352Z,103559.31
2023-02-09T20:15:24.338Z,103560.16
2023-02-09T20:18:26.936Z,103559.31
2023-02-09T20:21:29.669Z,103569.00
2023-02-09T20:24:33.561Z,103570.66
2023-02-09T20:27:36.156Z,103568.16
2023-02-09T20:30:41.367Z,103575.84
2023-02-09T20:33:43.904Z,103574.66
2023-02-09T20:36:47.997Z,103589.63
2023-02-09T20:39:51.916Z,103573.00
2023-02-09T20:43:12.133Z,103580.31
2023-02-09T20:46:35.950Z,103581.50
2023-02-09T20:49:40.424Z,103588.38
2023-02-09T20:52:45.514Z,103588.38
2023-02-09T20:55:49.460Z,103588.38
2023-02-09T20:58:52.024Z,103594.03
2023-02-09T21:01:54.599Z,103596.38
2023-02-09T21:04:57.309Z,103596.38
2023-02-09T21:07:59.980Z,103600.88
2023-02-09T21:11:03.981Z,103603.69
2023-02-09T21:14:06.566Z,103596.38
2023-02-09T21:17:09.108Z,103595.56
2023-02-09T21:20:11.787Z,103599.56
2023-02-09T21:23:15.412Z,103603.22
2023-02-09T21:26:19.649Z,103600.38
2023-02-09T21:29:22.207Z,103597.91
2023-02-09T21:32:24.748Z,103599.91
2023-02-09T21:35:27.425Z,103604.75
2023-02-09T21:38:30.060Z,103612.44
2023-02-09T21:41:51.598Z,103605.13
2023-02-09T21:44:55.064Z,103605.13
2023-02-09T21:47:59.300Z,103606.78
2023-02-09T21:51:03.925Z,103621.28
2023-02-09T21:54:06.711Z,103617.28
2023-02-09T21:57:10.603Z,103615.28
2023-02-09T22:00:14.482Z,103620.56
2023-02-09T22:03:17.041Z,103615.28
2023-02-09T22:06:19.760Z,103619.28
2023-02-09T22:09:23.945Z,103619.63
2023-02-09T22:12:27.918Z,103619.97
2023-02-09T22:15:30.500Z,103619.50
2023-02-09T22:18:33.020Z,103617.88
2023-02-09T22:21:35.571Z,103617.88
2023-02-09T22:24:38.180Z,103603.34
2023-02-09T22:27:42.201Z,103615.06
2023-02-09T22:30:45.144Z,103608.91
2023-02-09T22:33:47.997Z,103599.94
2023-02-09T22:36:52.221Z,103602.31
2023-02-09T22:39:54.743Z,103606.31
2023-02-09T22:42:58.661Z,103610.31
2023-02-09T22:46:01.375Z,103608.66
2023-02-09T22:49:06.204Z,103607.00
2023-02-09T22:52:09.601Z,103605.34
2023-02-09T22:55:12.236Z,103612.19
2023-02-09T22:58:16.143Z,103606.06
2023-02-09T23:01:18.794Z,103610.06
2023-02-09T23:04:21.426Z,103614.91
2023-02-09T23:07:23.988Z,103620.91
2023-02-09T23:10:26.613Z,103615.25
2023-02-09T23:13:31.812Z,103623.75
2023-02-09T23:16:34.338Z,103613.63
2023-02-09T23:19:36.916Z,103616.81
2023-02-09T23:22:39.564Z,103607.47
2023-02-09T23:25:42.159Z,103620.47
2023-02-09T23:28:46.119Z,103619.97
2023-02-09T23:31:48.907Z,103621.16
2023-02-09T23:34:51.464Z,103626.81
2023-02-09T23:37:53.985Z,103631.66
2023-02-09T23:40:56.516Z,103630.81
2023-02-09T23:44:00.446Z,103630.38
2023-02-09T23:47:02.996Z,103635.66
2023-02-09T23:50:05.919Z,103629.19
2023-02-09T23:53:08.495Z,103632.03
2023-02-09T23:56:11.210Z,103629.19
2023-02-09T23:59:15.916Z,103626.38
